createdAt,value
2022-12-11T00:04:44.256Z,-1.20
2022-12-11T00:09:47.013Z,-1.27
2022-12-11T00:14:49.916Z,-1.34
2022-12-11T00:19:52.640Z,-1.35
2022-12-11T00:24:55.416Z,-1.31
2022-12-11T00:29:58.218Z,-1.24
2022-12-11T00:35:01.019Z,-1.23
2022-12-11T00:40:04.126Z,-1.28
2022-12-11T00:45:07.747Z,-1.35
2022-12-11T00:50:10.651Z,-1.41
2022-12-11T00:55:13.775Z,-1.41
2022-12-11T01:00:16.770Z,-1.36
2022-12-11T01:05:19.503Z,-1.33
2022-12-11T01:10:25.197Z,-1.36
2022-12-11T01:15:37.527Z,-1.40
2022-12-11T01:20:44.052Z,-1.44
2022-12-11T01:25:46.744Z,-1.45
2022-12-11T01:30:49.798Z,-1.47
2022-12-11T01:35:52.540Z,-1.54
2022-12-11T01:40:55.246Z,-1.61
2022-12-11T01:45:58.103Z,-1.66
2022-12-11T01:51:04.988Z,-1.74
2022-12-11T01:56:08.367Z,-1.79
2022-12-11T02:01:19.412Z,-1.86
2022-12-11T02:06:44.015Z,-1.85
2022-12-11T02:12:02.130Z,-1.80
2022-12-11T02:17:12.005Z,-1.80
2022-12-11T02:22:27.291Z,-1.84
2022-12-11T02:27:37.532Z,-1.90
2022-12-11T02:32:50.002Z,-1.97
2022-12-11T02:37:58.846Z,-2.03
2022-12-11T02:43:05.133Z,-2.07
2022-12-11T02:48:11.325Z,-2.01
2022-12-11T02:53:18.817Z,-1.93
2022-12-11T02:58:29.391Z,-1.88
2022-12-11T03:03:32.095Z,-1.89
2022-12-11T03:08:34.906Z,-1.95
2022-12-11T03:13:39.090Z,-2.01
2022-12-11T03:18:54.026Z,-1.98
2022-12-11T03:24:09.058Z,-1.95
2022-12-11T03:29:23.486Z,-1.95
2022-12-11T03:34:32.537Z,-1.99
2022-12-11T03:39:43.811Z,-2.07
2022-12-11T03:44:49.555Z,-2.16
2022-12-11T03:49:53.713Z,-2.20
2022-12-11T03:55:01.033Z,-2.20
2022-12-11T04:00:10.292Z,-2.17
2022-12-11T04:05:13.281Z,-2.12
2022-12-11T04:10:16.340Z,-2.13
2022-12-11T04:15:19.064Z,-2.21
2022-12-11T04:20:40.861Z,-2.29
2022-12-11T04:25:43.621Z,-2.37
2022-12-11T04:30:50.143Z,-2.40
2022-12-11T04:35:52.936Z,-2.39
2022-12-11T04:41:04.763Z,-2.36
2022-12-11T04:46:22.521Z,-2.34
2022-12-11T04:51:25.889Z,-2.38
2022-12-11T04:56:28.631Z,-2.43
2022-12-11T05:01:31.362Z,-2.47
2022-12-11T05:06:34.098Z,-2.45
2022-12-11T05:11:36.828Z,-2.44
2022-12-11T05:16:39.697Z,-2.47
2022-12-11T05:21:42.417Z,-2.46
2022-12-11T05:26:45.521Z,-2.47
2022-12-11T05:31:48.252Z,-2.51
2022-12-11T05:36:51.100Z,-2.56
2022-12-11T05:41:53.951Z,-2.60
2022-12-11T05:46:56.717Z,-2.57
2022-12-11T05:51:59.509Z,-2.59
2022-12-11T05:57:02.247Z,-2.63
2022-12-11T06:02:04.986Z,-2.68
2022-12-11T06:07:07.778Z,-2.71
2022-12-11T06:12:10.450Z,-2.73
2022-12-11T06:17:13.247Z,-2.72
2022-12-11T06:22:16.049Z,-2.68
2022-12-11T06:27:19.555Z,-2.64
2022-12-11T06:32:22.856Z,-2.67
2022-12-11T06:37:25.541Z,-2.66
2022-12-11T06:42:30.691Z,-2.71
2022-12-11T06:47:33.859Z,-2.72
2022-12-11T06:52:36.570Z,-2.69
2022-12-11T06:57:39.344Z,-2.60
2022-12-11T07:02:42.113Z,-2.50
2022-12-11T07:07:45.022Z,-2.47
2022-12-11T07:12:47.850Z,-2.47
2022-12-11T07:17:50.534Z,-2.49
2022-12-11T07:22:54.484Z,-2.50
2022-12-11T07:27:57.894Z,-2.51
2022-12-11T07:33:00.763Z,-2.55
2022-12-11T07:38:03.989Z,-2.56
2022-12-11T07:43:06.724Z,-2.57
2022-12-11T07:48:09.508Z,-2.53
2022-12-11T07:53:12.227Z,-2.48
2022-12-11T07:58:14.890Z,-2.51
2022-12-11T08:03:17.782Z,-2.53
2022-12-11T08:08:20.639Z,-2.55
2022-12-11T08:13:23.397Z,-2.58
2022-12-11T08:18:26.125Z,-2.57
2022-12-11T08:23:28.914Z,-2.53
2022-12-11T08:28:32.365Z,-2.49
2022-12-11T08:33:37.576Z,-2.48
2022-12-11T08:38:40.643Z,-2.47
2022-12-11T08:43:43.484Z,-2.50
2022-12-11T08:48:46.337Z,-2.54
2022-12-11T08:53:49.774Z,-2.53
2022-12-11T08:58:53.290Z,-2.48
2022-12-11T09:03:56.998Z,-2.46
2022-12-11T09:09:01.586Z,-2.44
2022-12-11T09:14:07.971Z,-2.50
2022-12-11T09:19:15.206Z,-2.53
2022-12-11T09:24:17.949Z,-2.54
2022-12-11T09:29:20.794Z,-2.52
2022-12-11T09:34:29.169Z,-2.52
2022-12-11T09:39:32.405Z,-2.52
2022-12-11T09:44:55.413Z,-2.58
2022-12-11T09:50:26.199Z,-2.61
2022-12-11T09:56:02.868Z,-2.68
2022-12-11T10:01:17.667Z,-2.67
2022-12-11T10:06:23.172Z,-2.64
2022-12-11T10:11:39.124Z,-2.62
2022-12-11T10:16:52.165Z,-2.59
2022-12-11T10:21:56.511Z,-2.53
2022-12-11T10:27:14.582Z,-2.53
2022-12-11T10:32:42.968Z,-2.55
2022-12-11T10:37:45.664Z,-2.60
2022-12-11T10:42:53.777Z,-2.55
2022-12-11T10:48:04.990Z,-2.46
2022-12-11T10:53:21.423Z,-2.44
2022-12-11T10:58:28.516Z,-2.45
2022-12-11T11:03:33.447Z,-2.50
2022-12-11T11:08:57.795Z,-2.57
2022-12-11T11:14:21.766Z,-2.60
2022-12-11T11:19:32.566Z,-2.58
2022-12-11T11:24:40.645Z,-2.53
2022-12-11T11:29:47.765Z,-2.52
2022-12-11T11:35:05.237Z,-2.57
2022-12-11T11:40:22.968Z,-2.63
2022-12-11T11:45:34.898Z,-2.69
2022-12-11T11:50:45.072Z,-2.65
2022-12-11T11:56:21.472Z,-2.62
2022-12-11T12:01:24.245Z,-2.63
2022-12-11T12:06:50.947Z,-2.68
2022-12-11T12:12:33.824Z,-2.74
2022-12-11T12:17:39.840Z,-2.75
2022-12-11T12:23:06.501Z,-2.73
2022-12-11T12:28:27.600Z,-2.73
2022-12-11T12:34:04.432Z,-2.79
2022-12-11T12:39:33.655Z,-2.85
2022-12-11T12:45:09.239Z,-2.81
2022-12-11T12:50:17.805Z,-2.81
2022-12-11T12:55:27.275Z,-2.85
2022-12-11T13:00:39.115Z,-2.94
2022-12-11T13:05:55.755Z,-2.99
2022-12-11T13:11:19.605Z,-3.03
2022-12-11T13:16:26.389Z,-3.04
2022-12-11T13:21:38.266Z,-3.05
2022-12-11T13:26:42.061Z,-3.11
2022-12-11T13:31:45.707Z,-3.18
2022-12-11T13:36:54.140Z,-3.20
2022-12-11T13:42:01.366Z,-3.14
2022-12-11T13:47:05.996Z,-3.08
2022-12-11T13:52:17.780Z,-3.04
2022-12-11T13:57:25.829Z,-3.05
2022-12-11T14:02:40.657Z,-3.11
2022-12-11T14:07:49.252Z,-3.05
2022-12-11T14:13:02.096Z,-3.03
2022-12-11T14:18:05.788Z,-3.09
2022-12-11T14:23:18.551Z,-3.10
2022-12-11T14:28:27.380Z,-3.10
2022-12-11T14:33:38.418Z,-3.10
2022-12-11T14:38:57.248Z,-3.08
2022-12-11T14:44:04.439Z,-3.10
2022-12-11T14:49:22.828Z,-3.11
2022-12-11T14:54:28.612Z,-3.15
2022-12-11T14:59:37.975Z,-3.15
2022-12-11T15:04:40.739Z,-3.15
2022-12-11T15:09:46.832Z,-3.18
2022-12-11T15:14:51.684Z,-3.13
2022-12-11T15:20:07.573Z,-3.12
2022-12-11T15:25:20.324Z,-3.14
2022-12-11T15:30:26.958Z,-3.17
2022-12-11T15:35:30.029Z,-3.20
2022-12-11T15:40:32.990Z,-3.16
2022-12-11T15:45:35.832Z,-3.14
2022-12-11T15:50:40.075Z,-3.15
2022-12-11T15:55:42.785Z,-3.19
2022-12-11T16:00:45.800Z,-3.28
2022-12-11T16:05:50.825Z,-3.28
2022-12-11T16:10:55.413Z,-3.28
2022-12-11T16:15:58.544Z,-3.34
2022-12-11T16:21:06.481Z,-3.41
2022-12-11T16:26:09.915Z,-3.43
2022-12-11T16:31:14.509Z,-3.40
2022-12-11T16:36:19.654Z,-3.34
2022-12-11T16:41:23.569Z,-3.37
2022-12-11T16:46:26.347Z,-3.44
2022-12-11T16:51:29.100Z,-3.49
2022-12-11T16:56:31.942Z,-3.50
2022-12-11T17:01:34.873Z,-3.48
2022-12-11T17:06:37.756Z,-3.46
2022-12-11T17:11:40.659Z,-3.41
2022-12-11T17:16:43.460Z,-3.39
2022-12-11T17:21:51.588Z,-3.42
2022-12-11T17:26:55.945Z,-3.39
2022-12-11T17:31:58.826Z,-3.32
2022-12-11T17:37:01.551Z,-3.24
2022-12-11T17:42:04.552Z,-3.18
2022-12-11T17:47:11.182Z,-3.17
2022-12-11T17:52:14.841Z,-3.18
2022-12-11T17:57:17.619Z,-3.24
2022-12-11T18:02:20.899Z,-3.22
2022-12-11T18:07:23.700Z,-3.22
2022-12-11T18:12:27.300Z,-3.26
2022-12-11T18:17:30.034Z,-3.30
2022-12-11T18:22:33.095Z,-3.30
2022-12-11T18:27:35.993Z,-3.27
2022-12-11T18:32:38.718Z,-3.22
2022-12-11T18:37:41.898Z,-3.16
2022-12-11T18:42:44.983Z,-3.14
2022-12-11T18:47:48.345Z,-3.21
2022-12-11T18:52:55.615Z,-3.26
2022-12-11T18:57:58.406Z,-3.32
2022-12-11T19:03:02.146Z,-3.34
2022-12-11T19:08:05.333Z,-3.35
2022-12-11T19:13:08.085Z,-3.40
2022-12-11T19:18:16.317Z,-3.43
2022-12-11T19:23:21.196Z,-3.41
2022-12-11T19:28:24.057Z,-3.39
2022-12-11T19:33:26.798Z,-3.37
2022-12-11T19:38:29.743Z,-3.35
2022-12-11T19:43:33.489Z,-3.36
2022-12-11T19:48:41.352Z,-3.39
2022-12-11T19:53:45.392Z,-3.34
2022-12-11T19:58:48.945Z,-3.27
2022-12-11T20:03:53.363Z,-3.24
2022-12-11T20:08:56.430Z,-3.22
2022-12-11T20:14:00.023Z,-3.20
2022-12-11T20:19:05.066Z,-3.14
2022-12-11T20:24:09.181Z,-3.15
2022-12-11T20:29:12.935Z,-3.17
2022-12-11T20:34:15.705Z,-3.15
2022-12-11T20:39:18.523Z,-3.13
2022-12-11T20:44:21.325Z,-3.05
2022-12-11T20:49:24.129Z,-3.00
2022-12-11T20:54:27.337Z,-2.97
2022-12-11T20:59:30.138Z,-2.94
2022-12-11T21:04:32.931Z,-2.92
2022-12-11T21:09:36.296Z,-2.84
2022-12-11T21:14:39.571Z,-2.75
2022-12-11T21:19:42.271Z,-2.72
2022-12-11T21:24:45.067Z,-2.72
2022-12-11T21:29:47.870Z,-2.72
2022-12-11T21:34:51.497Z,-2.65
2022-12-11T21:39:58.057Z,-2.56
2022-12-11T21:50:24.105Z,-2.48
2022-12-11T21:55:26.862Z,-2.48
2022-12-11T22:00:29.592Z,-2.46
2022-12-11T22:05:32.421Z,-2.40
2022-12-11T22:10:35.224Z,-2.33
2022-12-11T22:15:38.066Z,-2.29
2022-12-11T22:20:40.808Z,-2.25
2022-12-11T22:25:43.554Z,-2.24
2022-12-11T22:30:46.409Z,-2.22
2022-12-11T22:35:57.201Z,-2.15
2022-12-11T22:40:59.909Z,-2.05
2022-12-11T22:46:02.755Z,-1.99
2022-12-11T22:51:06.691Z,-1.95
2022-12-11T22:56:12.744Z,-1.93
2022-12-11T23:01:19.753Z,-1.87
2022-12-11T23:06:24.909Z,-1.80
2022-12-11T23:11:34.993Z,-1.74
2022-12-11T23:16:37.931Z,-1.71
2022-12-11T23:21:41.342Z,-1.63
2022-12-11T23:26:44.320Z,-1.57
2022-12-11T23:31:46.988Z,-1.51
2022-12-11T23:36:49.718Z,-1.49
2022-12-11T23:41:52.521Z,-1.46
2022-12-11T23:46:55.185Z,-1.39
2022-12-11T23:51:58.020Z,-1.32
2022-12-11T23:57:00.707Z,-1.27
